createdAt,value
2022-08-10T00:01:34.648Z,19.10
2022-08-10T00:04:02.374Z,19.00
2022-08-10T00:06:29.701Z,19.00
2022-08-10T00:08:57.202Z,18.90
2022-08-10T00:11:25.665Z,18.90
2022-08-10T00:13:52.959Z,18.90
2022-08-10T00:16:20.132Z,18.90
2022-08-10T00:18:47.337Z,18.80
2022-08-10T00:21:14.596Z,18.80
2022-08-10T00:23:41.843Z,18.80
2022-08-10T00:26:10.309Z,18.80
2022-08-10T00:28:39.054Z,18.80
2022-08-10T00:31:06.906Z,18.70
2022-08-10T00:33:33.968Z,18.70
2022-08-10T00:36:01.060Z,18.70
2022-08-10T00:38:28.111Z,18.70
2022-08-10T00:40:55.244Z,18.60
2022-08-10T00:43:25.306Z,18.60
2022-08-10T00:45:58.813Z,18.60
2022-08-10T00:48:31.574Z,18.60
2022-08-10T00:50:59.870Z,18.50
2022-08-10T00:53:28.771Z,18.50
2022-08-10T00:57:12.487Z,18.50
2022-08-10T00:58:45.025Z,18.40
2022-08-10T01:02:07.365Z,18.40
2022-08-10T01:04:36.706Z,18.40
2022-08-10T01:07:24.220Z,18.40
2022-08-10T01:10:31.107Z,18.40
2022-08-10T01:13:20.419Z,18.30
2022-08-10T01:16:14.577Z,18.30
2022-08-10T01:19:03.106Z,18.30
2022-08-10T01:22:12.434Z,18.20
2022-08-10T01:25:28.256Z,18.20
2022-08-10T01:28:21.040Z,18.20
2022-08-10T01:30:54.009Z,18.20
2022-08-10T01:33:58.977Z,18.20
2022-08-10T01:36:32.406Z,18.10
2022-08-10T01:39:04.439Z,18.10
2022-08-10T01:41:46.400Z,18.00
2022-08-10T01:44:25.291Z,18.10
2022-08-10T01:47:23.597Z,18.00
2022-08-10T01:50:02.934Z,18.00
2022-08-10T01:52:32.208Z,18.00
2022-08-10T01:54:59.750Z,17.90
2022-08-10T01:57:32.396Z,18.00
2022-08-10T02:00:02.647Z,17.90
2022-08-10T02:02:31.533Z,17.90
2022-08-10T02:05:02.333Z,17.80
2022-08-10T02:07:33.332Z,17.80
2022-08-10T02:10:09.628Z,17.80
2022-08-10T02:12:37.949Z,17.80
2022-08-10T02:15:15.179Z,17.80
2022-08-10T02:17:57.988Z,17.80
2022-08-10T02:20:49.292Z,17.80
2022-08-10T02:23:25.810Z,17.70
2022-08-10T02:25:57.113Z,17.70
2022-08-10T02:28:30.690Z,17.70
2022-08-10T02:31:11.454Z,17.70
2022-08-10T02:33:54.194Z,17.60
2022-08-10T02:36:29.524Z,17.60
2022-08-10T02:39:02.000Z,17.60
2022-08-10T02:45:11.044Z,17.60
2022-08-10T02:45:27.649Z,17.50
2022-08-10T02:47:51.235Z,17.50
2022-08-10T02:50:41.807Z,17.50
2022-08-10T02:53:54.355Z,17.50
2022-08-10T02:56:37.512Z,17.40
2022-08-10T02:59:15.691Z,17.40
2022-08-10T03:01:48.832Z,17.40
2022-08-10T03:04:57.177Z,17.30
2022-08-10T03:07:44.090Z,17.30
2022-08-10T03:10:20.959Z,17.30
2022-08-10T03:12:53.511Z,17.20
2022-08-10T03:15:22.584Z,17.20
2022-08-10T03:17:58.280Z,17.30
2022-08-10T03:20:39.674Z,17.20
2022-08-10T03:23:24.105Z,17.20
2022-08-10T03:25:56.152Z,17.10
2022-08-10T03:28:30.245Z,17.10
2022-08-10T03:31:00.527Z,17.10
2022-08-10T03:33:33.709Z,17.10
2022-08-10T03:36:41.599Z,17.00
2022-08-10T03:38:51.756Z,17.00
2022-08-10T03:41:29.664Z,17.00
2022-08-10T03:43:58.971Z,16.90
2022-08-10T03:46:28.329Z,16.90
2022-08-10T03:49:00.868Z,16.90
2022-08-10T03:51:28.866Z,16.90
2022-08-10T03:54:05.734Z,16.90
2022-08-10T03:56:37.200Z,16.90
2022-08-10T03:59:07.418Z,16.90
2022-08-10T04:02:46.664Z,16.90
2022-08-10T04:04:25.110Z,16.90
2022-08-10T04:06:56.319Z,16.90
2022-08-10T04:09:54.379Z,16.90
2022-08-10T04:12:18.001Z,16.90
2022-08-10T04:14:50.541Z,16.90
2022-08-10T04:17:56.783Z,16.90
2022-08-10T04:20:37.327Z,16.80
2022-08-10T04:23:13.916Z,16.90
2022-08-10T04:25:41.473Z,16.90
2022-08-10T04:28:10.593Z,16.90
2022-08-10T04:30:39.265Z,16.80
2022-08-10T04:33:10.493Z,16.90
2022-08-10T04:35:38.531Z,16.90
2022-08-10T04:38:06.961Z,16.90
2022-08-10T04:40:34.085Z,16.90
2022-08-10T04:43:11.916Z,16.90
2022-08-10T04:45:48.895Z,16.90
2022-08-10T04:48:41.350Z,17.00
2022-08-10T04:51:18.992Z,16.90
2022-08-10T04:54:04.738Z,17.00
2022-08-10T04:56:39.492Z,17.00
2022-08-10T04:59:11.768Z,17.00
2022-08-10T05:02:27.829Z,17.10
2022-08-10T05:04:36.984Z,17.10
2022-08-10T05:07:09.076Z,17.10
2022-08-10T05:10:02.109Z,17.20
2022-08-10T05:12:25.115Z,17.20
2022-08-10T05:14:52.553Z,17.30
2022-08-10T05:17:22.173Z,17.30
2022-08-10T05:20:03.568Z,17.40
2022-08-10T05:22:42.510Z,17.40
2022-08-10T05:25:16.279Z,17.40
2022-08-10T05:27:44.706Z,17.50
2022-08-10T05:30:20.584Z,17.50
2022-08-10T05:32:57.194Z,17.50
2022-08-10T05:35:28.853Z,17.50
2022-08-10T05:38:17.043Z,17.60
2022-08-10T05:40:47.522Z,17.70
2022-08-10T05:43:21.189Z,17.80
2022-08-10T05:46:17.398Z,17.80
2022-08-10T05:48:41.853Z,17.90
2022-08-10T05:51:26.395Z,18.00
2022-08-10T05:54:02.530Z,18.00
2022-08-10T05:56:53.771Z,18.10
2022-08-10T06:00:29.473Z,18.20
2022-08-10T06:02:44.992Z,18.30
2022-08-10T06:05:16.181Z,18.40
2022-08-10T06:07:57.826Z,18.50
2022-08-10T06:10:32.738Z,18.50
2022-08-10T06:13:30.296Z,18.70
2022-08-10T06:16:06.564Z,18.70
2022-08-10T06:18:34.172Z,18.80
2022-08-10T06:21:01.997Z,18.90
2022-08-10T06:23:31.174Z,18.90
2022-08-10T06:26:11.295Z,19.00
2022-08-10T06:29:03.312Z,19.10
2022-08-10T06:31:48.064Z,19.20
2022-08-10T06:34:49.613Z,19.30
2022-08-10T06:37:19.575Z,19.40
2022-08-10T06:39:47.084Z,19.50
2022-08-10T06:42:43.192Z,19.60
2022-08-10T06:45:31.407Z,19.60
2022-08-10T06:48:26.478Z,19.70
2022-08-10T06:51:07.629Z,19.80
2022-08-10T06:53:53.433Z,19.90
2022-08-10T06:56:37.536Z,20.00
2022-08-10T06:59:53.051Z,20.00
2022-08-10T07:02:29.840Z,20.20
2022-08-10T07:05:06.377Z,20.30
2022-08-10T07:07:39.927Z,20.40
2022-08-10T07:10:09.287Z,20.40
2022-08-10T07:12:38.487Z,20.50
2022-08-10T07:15:08.853Z,20.60
2022-08-10T07:17:39.640Z,20.70
2022-08-10T07:20:09.549Z,20.80
2022-08-10T07:23:22.682Z,20.90
2022-08-10T07:25:28.582Z,21.00
2022-08-10T07:28:00.178Z,21.10
2022-08-10T07:30:32.315Z,21.20
2022-08-10T07:33:02.694Z,21.30
2022-08-10T07:35:41.522Z,21.40
2022-08-10T07:38:27.971Z,21.50
2022-08-10T07:40:57.392Z,21.60
2022-08-10T07:43:26.869Z,21.70
2022-08-10T07:45:56.742Z,21.70
2022-08-10T07:48:27.859Z,21.80
2022-08-10T07:51:02.212Z,21.90
2022-08-10T07:53:38.538Z,22.10
2022-08-10T07:56:20.972Z,22.10
2022-08-10T07:59:07.916Z,22.30
2022-08-10T08:01:40.929Z,22.40
2022-08-10T08:04:12.371Z,22.60
2022-08-10T08:06:42.526Z,22.70
2022-08-10T08:09:11.305Z,22.80
2022-08-10T08:11:44.528Z,22.90
2022-08-10T08:14:14.812Z,23.00
2022-08-10T08:16:46.447Z,23.10
2022-08-10T08:19:37.923Z,23.20
2022-08-10T08:24:05.430Z,23.40
2022-08-10T08:24:55.060Z,23.50
2022-08-10T08:27:23.488Z,23.70
2022-08-10T08:29:52.290Z,23.80
2022-08-10T08:32:26.522Z,24.00
2022-08-10T08:35:09.492Z,24.00
2022-08-10T08:38:30.432Z,24.20
2022-08-10T08:40:38.445Z,24.20
2022-08-10T08:43:43.490Z,24.30
2022-08-10T08:46:28.890Z,24.40
2022-08-10T08:49:41.469Z,24.50
2022-08-10T08:52:51.152Z,24.70
2022-08-10T08:56:06.044Z,24.90
2022-08-10T08:58:50.739Z,24.90
2022-08-10T09:01:38.207Z,25.00
2022-08-10T09:04:48.453Z,25.00
2022-08-10T09:08:00.962Z,25.10
2022-08-10T09:10:21.157Z,25.10
2022-08-10T09:12:59.950Z,25.20
2022-08-10T09:15:44.453Z,25.30
2022-08-10T09:18:17.995Z,25.30
2022-08-10T09:21:16.042Z,25.40
2022-08-10T09:24:20.223Z,25.50
2022-08-10T09:26:51.949Z,25.60
2022-08-10T09:29:37.226Z,25.80
2022-08-10T09:33:06.222Z,25.80
2022-08-10T09:36:25.987Z,25.90
2022-08-10T09:38:57.913Z,26.00
2022-08-10T09:42:05.596Z,26.00
2022-08-10T09:44:58.526Z,26.10
2022-08-10T09:48:04.629Z,26.20
2022-08-10T09:51:42.175Z,26.30
2022-08-10T09:54:27.219Z,26.30
2022-08-10T09:57:44.121Z,26.30
2022-08-10T10:00:15.464Z,26.40
2022-08-10T10:03:35.767Z,26.50
2022-08-10T10:06:22.042Z,26.70
2022-08-10T10:09:32.588Z,26.80
2022-08-10T10:12:21.236Z,26.90
2022-08-10T10:15:43.037Z,27.00
2022-08-10T10:18:15.649Z,27.10
2022-08-10T10:21:04.114Z,27.20
2022-08-10T10:24:16.217Z,27.20
2022-08-10T10:27:16.089Z,27.30
2022-08-10T10:30:20.100Z,27.30
2022-08-10T10:33:07.830Z,27.40
2022-08-10T10:35:55.901Z,27.60
2022-08-10T10:38:29.930Z,27.60
2022-08-10T10:41:28.916Z,27.70
2022-08-10T10:44:36.930Z,27.70
2022-08-10T10:47:10.030Z,27.80
2022-08-10T10:50:12.989Z,27.80
2022-08-10T10:53:19.208Z,27.90
2022-08-10T10:56:14.137Z,28.00
2022-08-10T10:59:33.341Z,28.10
2022-08-10T11:02:16.787Z,28.20
2022-08-10T11:05:09.139Z,28.40
2022-08-10T11:07:59.117Z,28.40
2022-08-10T11:10:53.188Z,28.50
2022-08-10T11:14:37.446Z,28.60
2022-08-10T11:17:40.512Z,28.60
2022-08-10T11:20:24.527Z,28.80
2022-08-10T11:23:18.181Z,28.80
2022-08-10T11:25:57.846Z,28.90
2022-08-10T11:29:25.131Z,29.10
2022-08-10T11:32:20.607Z,29.10
2022-08-10T11:35:22.334Z,29.20
2022-08-10T11:38:42.862Z,29.30
2022-08-10T11:42:09.641Z,29.40
2022-08-10T11:45:36.746Z,29.50
2022-08-10T11:48:54.580Z,29.70
2022-08-10T11:51:39.115Z,29.70
2022-08-10T11:54:20.184Z,29.80
2022-08-10T11:57:01.959Z,29.90
2022-08-10T11:59:57.867Z,29.80
2022-08-10T12:02:39.672Z,29.80
2022-08-10T12:05:18.248Z,29.80
2022-08-10T12:09:23.957Z,29.90
2022-08-10T12:10:41.165Z,29.90
2022-08-10T12:14:19.643Z,29.90
2022-08-10T12:16:49.040Z,30.00
2022-08-10T12:19:36.633Z,30.20
2022-08-10T12:22:31.600Z,30.40
2022-08-10T12:25:07.603Z,30.40
2022-08-10T12:27:50.509Z,30.10
2022-08-10T12:30:21.075Z,29.90
2022-08-10T12:33:05.055Z,29.90
2022-08-10T12:36:16.885Z,30.00
2022-08-10T12:39:02.619Z,30.10
2022-08-10T12:42:01.821Z,30.30
2022-08-10T12:44:47.579Z,30.30
2022-08-10T12:47:53.044Z,29.90
2022-08-10T12:50:34.072Z,29.70
2022-08-10T12:53:38.037Z,29.70
2022-08-10T12:56:07.132Z,29.90
2022-08-10T12:58:58.235Z,30.10
2022-08-10T13:02:10.427Z,30.10
2022-08-10T13:04:24.722Z,30.10
2022-08-10T13:06:53.289Z,30.30
2022-08-10T13:09:25.970Z,30.50
2022-08-10T13:12:36.917Z,30.70
2022-08-10T13:15:48.919Z,30.90
2022-08-10T13:18:18.995Z,31.00
2022-08-10T13:20:52.681Z,31.10
2022-08-10T13:23:28.609Z,31.40
2022-08-10T13:25:59.447Z,31.50
2022-08-10T13:28:49.702Z,31.70
2022-08-10T13:32:09.191Z,31.80
2022-08-10T13:34:43.393Z,31.80
2022-08-10T13:37:17.024Z,31.90
2022-08-10T13:42:35.901Z,32.20
2022-08-10T13:45:14.595Z,32.20
2022-08-10T13:47:48.773Z,32.30
2022-08-10T13:50:33.750Z,32.40
2022-08-10T13:53:11.697Z,32.50
2022-08-10T13:55:57.356Z,32.70
2022-08-10T13:58:36.154Z,32.80
2022-08-10T14:01:21.363Z,32.90
2022-08-10T14:03:51.516Z,33.00
2022-08-10T14:06:22.925Z,33.10
2022-08-10T14:09:02.051Z,33.10
2022-08-10T14:11:30.618Z,33.30
2022-08-10T14:14:08.257Z,33.30
2022-08-10T14:16:42.939Z,33.30
2022-08-10T14:19:21.202Z,32.90
2022-08-10T14:21:50.145Z,32.30
2022-08-10T14:24:28.935Z,31.90
2022-08-10T14:27:11.320Z,31.50
2022-08-10T14:29:48.110Z,31.50
2022-08-10T14:32:21.749Z,31.60
2022-08-10T14:36:15.373Z,31.60
2022-08-10T14:37:50.419Z,31.80
2022-08-10T14:40:40.722Z,32.10
2022-08-10T14:43:17.735Z,32.40
2022-08-10T14:46:05.859Z,32.60
2022-08-10T14:48:41.075Z,32.70
2022-08-10T14:51:11.284Z,32.40
2022-08-10T14:53:41.522Z,31.90
2022-08-10T14:56:13.769Z,31.50
2022-08-10T14:59:07.152Z,31.40
2022-08-10T15:02:00.536Z,31.50
2022-08-10T15:04:30.945Z,31.80
2022-08-10T15:07:11.919Z,32.00
2022-08-10T15:10:01.102Z,32.20
2022-08-10T15:12:38.600Z,32.10
2022-08-10T15:15:16.299Z,32.20
2022-08-10T15:17:53.307Z,32.30
2022-08-10T15:20:25.281Z,32.40
2022-08-10T15:23:03.929Z,32.30
2022-08-10T15:25:36.625Z,32.40
2022-08-10T15:28:11.195Z,32.30
2022-08-10T15:30:46.298Z,32.30
2022-08-10T15:34:02.032Z,32.40
2022-08-10T15:37:02.505Z,32.50
2022-08-10T15:40:24.575Z,32.50
2022-08-10T15:42:41.783Z,32.40
2022-08-10T15:45:18.277Z,32.40
2022-08-10T15:48:03.618Z,32.40
2022-08-10T15:50:48.293Z,32.50
2022-08-10T15:53:29.525Z,32.50
2022-08-10T15:56:09.535Z,32.60
2022-08-10T15:59:13.041Z,32.50
2022-08-10T16:02:13.563Z,32.40
2022-08-10T16:04:59.638Z,32.30
2022-08-10T16:07:45.903Z,31.90
2022-08-10T16:10:28.256Z,31.60
2022-08-10T16:13:59.760Z,31.10
2022-08-10T16:16:05.515Z,30.60
2022-08-10T16:18:38.291Z,30.20
2022-08-10T16:21:35.281Z,29.90
2022-08-10T16:24:14.436Z,29.60
2022-08-10T16:26:50.639Z,29.40
2022-08-10T16:29:22.259Z,29.20
2022-08-10T16:32:00.011Z,29.00
2022-08-10T16:34:31.762Z,28.90
2022-08-10T16:37:21.450Z,28.70
2022-08-10T16:40:01.346Z,28.50
2022-08-10T16:42:35.949Z,28.30
2022-08-10T16:45:42.942Z,28.10
2022-08-10T16:48:11.187Z,28.00
2022-08-10T16:50:46.406Z,27.80
2022-08-10T16:53:19.962Z,27.70
2022-08-10T16:55:51.991Z,27.50
2022-08-10T16:58:27.707Z,27.40
2022-08-10T17:01:07.953Z,27.30
2022-08-10T17:04:08.356Z,27.10
2022-08-10T17:06:56.876Z,27.10
2022-08-10T17:09:33.772Z,27.00
2022-08-10T17:12:11.820Z,26.90
2022-08-10T17:14:41.785Z,26.80
2022-08-10T17:17:26.127Z,26.70
2022-08-10T17:20:32.130Z,26.60
2022-08-10T17:22:52.746Z,26.60
2022-08-10T17:25:46.159Z,26.50
2022-08-10T17:28:34.904Z,26.40
2022-08-10T17:31:53.194Z,26.30
2022-08-10T17:34:03.462Z,26.20
2022-08-10T17:36:37.138Z,26.10
2022-08-10T17:39:08.755Z,26.10
2022-08-10T17:41:37.690Z,26.00
2022-08-10T17:44:08.140Z,25.90
2022-08-10T17:46:39.321Z,25.80
2022-08-10T17:51:40.573Z,25.70
2022-08-10T17:54:28.069Z,25.60
2022-08-10T17:57:00.602Z,25.50
2022-08-10T17:59:31.286Z,25.40
2022-08-10T18:02:13.302Z,25.30
2022-08-10T18:04:46.120Z,25.30
2022-08-10T18:07:15.135Z,25.20
2022-08-10T18:09:54.555Z,25.10
2022-08-10T18:12:34.477Z,25.10
2022-08-10T18:15:13.207Z,24.90
2022-08-10T18:17:47.251Z,24.90
2022-08-10T18:20:20.326Z,24.80
2022-08-10T18:22:57.369Z,24.70
2022-08-10T18:25:32.090Z,24.70
2022-08-10T18:28:05.064Z,24.60
2022-08-10T18:30:45.122Z,24.50
2022-08-10T18:33:15.012Z,24.40
2022-08-10T18:35:45.659Z,24.20
2022-08-10T18:38:16.262Z,24.10
2022-08-10T18:40:56.742Z,24.10
2022-08-10T18:44:07.849Z,23.90
2022-08-10T18:46:40.050Z,23.90
2022-08-10T18:49:19.308Z,23.70
2022-08-10T18:51:49.219Z,23.60
2022-08-10T18:54:39.921Z,23.50
2022-08-10T18:58:01.832Z,23.50
2022-08-10T19:01:18.483Z,23.30
2022-08-10T19:04:18.215Z,23.30
2022-08-10T19:07:05.774Z,23.10
2022-08-10T19:10:13.574Z,23.10
2022-08-10T19:13:29.564Z,23.00
2022-08-10T19:16:25.959Z,22.90
2022-08-10T19:19:46.088Z,22.80
2022-08-10T19:22:40.411Z,22.70
2022-08-10T19:26:40.849Z,22.70
2022-08-10T19:30:09.295Z,22.60
2022-08-10T19:32:24.249Z,22.50
2022-08-10T19:35:21.782Z,22.50
2022-08-10T19:38:42.264Z,22.40
2022-08-10T19:41:31.892Z,22.30
2022-08-10T19:44:26.885Z,22.30
2022-08-10T19:47:12.207Z,22.20
2022-08-10T19:49:50.038Z,22.20
2022-08-10T19:52:53.582Z,22.10
2022-08-10T19:55:43.533Z,22.00
2022-08-10T19:58:26.703Z,22.00
2022-08-10T20:01:03.488Z,21.90
2022-08-10T20:04:02.948Z,21.90
2022-08-10T20:07:11.946Z,21.80
2022-08-10T20:09:45.510Z,21.80
2022-08-10T20:13:09.239Z,21.70
2022-08-10T20:15:45.014Z,21.60
2022-08-10T20:18:32.955Z,21.60
2022-08-10T20:21:12.995Z,21.50
2022-08-10T20:24:06.787Z,21.50
2022-08-10T20:26:43.279Z,21.40
2022-08-10T20:29:59.008Z,21.40
2022-08-10T20:32:53.381Z,21.30
2022-08-10T20:35:43.995Z,21.30
2022-08-10T20:38:41.201Z,21.30
2022-08-10T20:41:52.647Z,21.20
2022-08-10T20:44:33.359Z,21.20
2022-08-10T20:47:17.795Z,21.10
2022-08-10T20:50:27.867Z,21.00
2022-08-10T20:53:03.126Z,21.00
2022-08-10T20:56:07.853Z,20.90
2022-08-10T20:59:08.957Z,20.90
2022-08-10T21:02:11.999Z,20.80
2022-08-10T21:04:58.607Z,20.80
2022-08-10T21:08:01.208Z,20.70
2022-08-10T21:11:14.415Z,20.70
2022-08-10T21:14:12.180Z,20.60
2022-08-10T21:17:10.905Z,20.50
2022-08-10T21:19:55.583Z,20.50
2022-08-10T21:22:31.679Z,20.40
2022-08-10T21:25:26.110Z,20.40
2022-08-10T21:27:59.534Z,20.40
2022-08-10T21:30:53.219Z,20.30
2022-08-10T21:33:37.056Z,20.30
2022-08-10T21:36:18.478Z,20.20
2022-08-10T21:39:16.258Z,20.20
2022-08-10T21:42:44.111Z,20.20
2022-08-10T21:45:59.659Z,20.20
2022-08-10T21:49:15.316Z,20.10
2022-08-10T21:52:17.384Z,20.10
2022-08-10T21:55:14.450Z,20.00
2022-08-10T21:58:16.056Z,20.00
2022-08-10T22:04:19.383Z,19.90
2022-08-10T22:07:07.527Z,19.90
2022-08-10T22:10:02.275Z,19.80
2022-08-10T22:13:00.222Z,19.80
2022-08-10T22:16:05.467Z,19.80
2022-08-10T22:19:04.226Z,19.70
2022-08-10T22:22:19.861Z,19.70
2022-08-10T22:25:33.590Z,19.60
2022-08-10T22:28:19.624Z,19.60
2022-08-10T22:31:32.518Z,19.60
2022-08-10T22:35:16.353Z,19.50
2022-08-10T22:38:59.185Z,19.50
2022-08-10T22:42:19.271Z,19.50
2022-08-10T22:45:08.050Z,19.40
2022-08-10T22:47:53.932Z,19.40
2022-08-10T22:50:28.407Z,19.40
2022-08-10T22:53:05.954Z,19.30
2022-08-10T22:56:05.031Z,19.30
2022-08-10T22:58:41.412Z,19.30
2022-08-10T23:02:08.857Z,19.20
2022-08-10T23:04:48.593Z,19.20
2022-08-10T23:07:18.222Z,19.20
2022-08-10T23:09:59.967Z,19.10
2022-08-10T23:12:48.111Z,19.10
2022-08-10T23:15:58.426Z,19.10
2022-08-10T23:18:55.904Z,19.00
2022-08-10T23:22:03.229Z,19.00
2022-08-10T23:24:29.606Z,19.00
2022-08-10T23:26:59.826Z,18.90
2022-08-10T23:30:09.984Z,18.90
2022-08-10T23:32:36.275Z,18.90
2022-08-10T23:36:30.662Z,18.80
2022-08-10T23:38:03.471Z,18.80
2022-08-10T23:40:32.267Z,18.80
2022-08-10T23:43:00.497Z,18.80
2022-08-10T23:45:52.274Z,18.70
2022-08-10T23:48:22.471Z,18.70
2022-08-10T23:51:03.448Z,18.70
2022-08-10T23:53:47.887Z,18.60
2022-08-10T23:56:19.282Z,18.60
2022-08-10T23:58:53.946Z,18.60
